This is the latest recevied weather packets stored in our database for station/object vk4zu-13. If no packets are shown the sender has not sent any weather packets the latest 10 day(s).
| Time | Temp. | Humidity | Pressure | Rain* | Wind** | Luminosity | Snow |
|---|---|---|---|---|---|---|---|
| 1777852560 | 25° C | 74% | 1019.4 hPa | 0 mm | - | 246 W/m² | - |
| 1777852495 | 25° C | 72% | 1019.4 hPa | 0 mm | - | 241 W/m² | - |
| 1777852437 | 25.56° C | 74% | 1019.4 hPa | 0 mm | - | 751 W/m² | - |
| 1777852375 | 25° C | 73% | 1019.4 hPa | 0 mm | - | 754 W/m² | - |
| 1777852296 | 25° C | 75% | 1019.4 hPa | 0 mm | - | 738 W/m² | - |
| 1777852229 | 25° C | 74% | 1019.5 hPa | 0 mm | - | 738 W/m² | - |
| 1777852167 | 25° C | 76% | 1019.5 hPa | 0 mm | - | 738 W/m² | - |
| 1777852107 | 25° C | 75% | 1019.6 hPa | 0 mm | - | 738 W/m² | - |
| 1777852035 | 24.44° C | 75% | 1019.5 hPa | 0 mm | - | 738 W/m² | - |
| 1777851965 | 24.44° C | 76% | 1019.6 hPa | 0 mm | - | 738 W/m² | - |
| 1777851895 | 24.44° C | 77% | 1019.5 hPa | 0 mm | - | 738 W/m² | - |
| 1777851825 | 24.44° C | 78% | 1019.5 hPa | 0 mm | - | 749 W/m² | - |
| 1777851757 | 23.89° C | 78% | 1019.5 hPa | 0 mm | - | 236 W/m² | - |
| 1777851686 | 23.89° C | 79% | 1019.6 hPa | 0 mm | - | 236 W/m² | - |
| 1777851624 | 23.89° C | 80% | 1019.6 hPa | 0 mm | - | 236 W/m² | - |
| 1777851559 | 23.89° C | 79% | 1019.4 hPa | 0 mm | - | 265 W/m² | - |
| 1777851501 | 23.89° C | 79% | 1019.5 hPa | 0 mm | - | 504 W/m² | - |
| 1777851429 | 23.33° C | 79% | 1019.5 hPa | 0 mm | - | 185 W/m² | - |
| 1777851360 | 23.33° C | 78% | 1019.4 hPa | 0 mm | - | 137 W/m² | - |
| 1777851289 | 23.89° C | 80% | 1019.5 hPa | 0 mm | - | 132 W/m² | - |
| 1777851229 | 23.89° C | 80% | 1019.4 hPa | 0 mm | - | 146 W/m² | - |
| 1777851167 | 23.89° C | 79% | 1019.4 hPa | 0 mm | - | 209 W/m² | - |
| 1777851097 | 23.89° C | 80% | 1019.5 hPa | 0 mm | - | 195 W/m² | - |
| 1777851027 | 23.89° C | 80% | 1019.4 hPa | 0 mm | - | 330 W/m² | - |
| 1777850958 | 23.89° C | 78% | 1019.4 hPa | 0 mm | - | 234 W/m² | - |
* Rain latest hour (hover to see other rain measurements)
** Current wind speed in m/s (hover to see current wind gust speed)